PWSweather.com
Personal Weather Stations
Station Observations
PENICUIKWS
PenicuikGB

PenicuikGB

Lat: 55.830932, Lon: -3.224533000000065

Elevation: 166

Station Type: Fine Offset

http://weather.penicuik.org

High Low Average
Temperature 67.6°F19.8°C 45.1°F7.3°C 58.3°F14.6°C
Dew Point 59.1°F15.1°C 42.7°F5.9°C 54.2°F12.3°C
Winds 5.1 mph 8.2 kmh Calm Calm 2.0 mph S3.2 kmh S
Wind Gusts 13.0 mph20.9 kmh -- 4.0 mph6.4 kmh
Humidity 97% 74% 87%
Pressure 30.23 in1023.7 mb 30.14 in1020.7 mb -
Precipitation 0.00 in0.0 mm - -
Hour Temp Dew Point Humidity Winds Wind Gusts Pressure Precip Precip Rate Daily Precip Total
12:00 AM 45.9°F7.7°C 43.1°F6.2°C 90% 0.6 mph S1.0 kmh S 2.2 mph3.5 kmh 30.16 in1021.3 mb 0.00 in0.0 mm 0.00 in0.0 mm 0.00 in0.0 mm
12:15 AM 45.5°F7.5°C 42.7°F5.9°C 90% Calm Calm -- 30.16 in1021.3 mb 0.00 in0.0 mm 0.00 in0.0 mm 0.00 in0.0 mm
12:30 AM 45.7°F7.6°C 43.2°F6.2°C 91% 0.5 mph W0.8 kmh W 2.2 mph3.5 kmh 30.16 in1021.3 mb 0.00 in0.0 mm 0.00 in0.0 mm 0.00 in0.0 mm
12:45 AM 45.5°F7.5°C 43.3°F6.3°C 92% 0.7 mph SW1.1 kmh SW 1.6 mph2.6 kmh 30.15 in1021.0 mb 0.00 in0.0 mm 0.00 in0.0 mm 0.00 in0.0 mm
01:00 AM 45.5°F7.5°C 43.3°F6.3°C 92% 0.5 mph WSW0.8 kmh WSW 1.6 mph2.6 kmh 30.16 in1021.3 mb 0.00 in0.0 mm 0.00 in0.0 mm 0.00 in0.0 mm
01:15 AM 45.1°F7.3°C 43.2°F6.2°C 93% 0.1 mph WSW0.2 kmh WSW 0.7 mph1.1 kmh 30.16 in1021.3 mb 0.00 in0.0 mm 0.00 in0.0 mm 0.00 in0.0 mm
01:30 AM 45.3°F7.4°C 43.4°F6.3°C 93% 0.7 mph SW1.1 kmh SW 1.6 mph2.6 kmh 30.15 in1021.0 mb 0.00 in0.0 mm 0.00 in0.0 mm 0.00 in0.0 mm
01:45 AM 45.5°F7.5°C 43.9°F6.6°C 94% 0.6 mph WSW1.0 kmh WSW 1.6 mph2.6 kmh 30.15 in1021.0 mb 0.00 in0.0 mm 0.00 in0.0 mm 0.00 in0.0 mm
02:15 AM 45.1°F7.3°C 43.5°F6.4°C 94% 0.2 mph S0.3 kmh S 0.7 mph1.1 kmh 30.15 in1021.0 mb 0.00 in0.0 mm 0.00 in0.0 mm 0.00 in0.0 mm
02:30 AM 45.7°F7.6°C 44.3°F6.8°C 95% 0.4 mph SSW0.6 kmh SSW 1.6 mph2.6 kmh 30.15 in1021.0 mb 0.00 in0.0 mm 0.00 in0.0 mm 0.00 in0.0 mm
02:45 AM 46.9°F8.3°C 45.6°F7.6°C 95% 0.3 mph SSW0.5 kmh SSW 0.7 mph1.1 kmh 30.14 in1020.7 mb 0.00 in0.0 mm 0.00 in0.0 mm 0.00 in0.0 mm
03:00 AM 48.6°F9.2°C 47.2°F8.4°C 95% Calm Calm -- 30.15 in1021.0 mb 0.00 in0.0 mm 0.00 in0.0 mm 0.00 in0.0 mm
03:15 AM 50.4°F10.2°C 49.0°F9.4°C 95% Calm Calm 0.7 mph1.1 kmh 30.14 in1020.7 mb 0.00 in0.0 mm 0.00 in0.0 mm 0.00 in0.0 mm
03:30 AM 51.8°F11.0°C 50.4°F10.2°C 95% 0.2 mph N0.3 kmh N 0.7 mph1.1 kmh 30.14 in1020.7 mb 0.00 in0.0 mm 0.00 in0.0 mm 0.00 in0.0 mm
03:45 AM 52.9°F11.6°C 51.2°F10.7°C 94% Calm Calm -- 30.14 in1020.7 mb 0.00 in0.0 mm 0.00 in0.0 mm 0.00 in0.0 mm
04:15 AM 55.8°F13.2°C 53.5°F11.9°C 92% 1.7 mph WNW2.7 kmh WNW 3.8 mph6.1 kmh 30.15 in1021.0 mb 0.00 in0.0 mm 0.00 in0.0 mm 0.00 in0.0 mm
04:30 AM 56.8°F13.8°C 53.3°F11.8°C 88% 1.1 mph WNW1.8 kmh WNW 1.6 mph2.6 kmh 30.15 in1021.0 mb 0.00 in0.0 mm 0.00 in0.0 mm 0.00 in0.0 mm
05:00 AM 57.0°F13.9°C 52.9°F11.6°C 86% 0.9 mph N1.4 kmh N 2.2 mph3.5 kmh 30.14 in1020.7 mb 0.00 in0.0 mm 0.00 in0.0 mm 0.00 in0.0 mm
05:30 AM 57.7°F14.3°C 52.9°F11.6°C 84% 2.5 mph NW4.0 kmh NW 5.4 mph8.7 kmh 30.14 in1020.7 mb 0.00 in0.0 mm 0.00 in0.0 mm 0.00 in0.0 mm
05:45 AM 58.1°F14.5°C 53.0°F11.7°C 83% 2.4 mph W3.9 kmh W 5.4 mph8.7 kmh 30.14 in1020.7 mb 0.00 in0.0 mm 0.00 in0.0 mm 0.00 in0.0 mm
06:15 AM 58.8°F14.9°C 54.0°F12.2°C 84% 2.2 mph NNE3.5 kmh NNE 4.5 mph7.2 kmh 30.15 in1021.0 mb 0.00 in0.0 mm 0.00 in0.0 mm 0.00 in0.0 mm
06:30 AM 59.2°F15.1°C 54.0°F12.2°C 83% 1.8 mph N2.9 kmh N 3.8 mph6.1 kmh 30.15 in1021.0 mb 0.00 in0.0 mm 0.00 in0.0 mm 0.00 in0.0 mm
07:00 AM 59.4°F15.2°C 54.5°F12.5°C 84% 2.4 mph E3.9 kmh E 3.8 mph6.1 kmh 30.15 in1021.0 mb 0.00 in0.0 mm 0.00 in0.0 mm 0.00 in0.0 mm
07:15 AM 59.9°F15.5°C 55.1°F12.8°C 84% 3.0 mph NNW4.8 kmh NNW 6.0 mph9.7 kmh 30.15 in1021.0 mb 0.00 in0.0 mm 0.00 in0.0 mm 0.00 in0.0 mm
07:45 AM 63.3°F17.4°C 56.7°F13.7°C 79% 3.4 mph WNW5.5 kmh WNW 6.0 mph9.7 kmh 30.15 in1021.0 mb 0.00 in0.0 mm 0.00 in0.0 mm 0.00 in0.0 mm
08:00 AM 63.9°F17.7°C 56.2°F13.4°C 76% 3.1 mph SW5.0 kmh SW 6.0 mph9.7 kmh 30.16 in1021.3 mb 0.00 in0.0 mm 0.00 in0.0 mm 0.00 in0.0 mm
08:30 AM 63.3°F17.4°C 55.3°F12.9°C 75% 2.6 mph SSE4.2 kmh SSE 4.5 mph7.2 kmh 30.16 in1021.3 mb 0.00 in0.0 mm 0.00 in0.0 mm 0.00 in0.0 mm
09:00 AM 62.2°F16.8°C 55.7°F13.2°C 79% 3.5 mph N5.6 kmh N 5.4 mph8.7 kmh 30.18 in1022.0 mb 0.00 in0.0 mm 0.00 in0.0 mm 0.00 in0.0 mm
09:15 AM 62.1°F16.7°C 55.8°F13.2°C 80% 2.9 mph SSW4.7 kmh SSW 3.8 mph6.1 kmh 30.18 in1022.0 mb 0.00 in0.0 mm 0.00 in0.0 mm 0.00 in0.0 mm
09:30 AM 62.1°F16.7°C 56.5°F13.6°C 82% 3.9 mph E6.3 kmh E 6.0 mph9.7 kmh 30.18 in1022.0 mb 0.00 in0.0 mm 0.00 in0.0 mm 0.00 in0.0 mm
09:45 AM 63.1°F17.3°C 57.2°F14.0°C 81% 3.5 mph E5.6 kmh E 6.9 mph11.1 kmh 30.18 in1022.0 mb 0.00 in0.0 mm 0.00 in0.0 mm 0.00 in0.0 mm
10:15 AM 65.1°F18.4°C 57.8°F14.3°C 77% 3.9 mph SSW6.3 kmh SSW 6.0 mph9.7 kmh 30.18 in1022.0 mb 0.00 in0.0 mm 0.00 in0.0 mm 0.00 in0.0 mm
10:30 AM 64.8°F18.2°C 56.7°F13.7°C 75% 3.6 mph N5.8 kmh N 6.9 mph11.1 kmh 30.18 in1022.0 mb 0.00 in0.0 mm 0.00 in0.0 mm 0.00 in0.0 mm
10:45 AM 63.9°F17.7°C 56.9°F13.8°C 78% 2.9 mph SE4.7 kmh SE 4.5 mph7.2 kmh 30.19 in1022.4 mb 0.00 in0.0 mm 0.00 in0.0 mm 0.00 in0.0 mm
11:00 AM 63.7°F17.6°C 57.1°F13.9°C 79% 4.8 mph S7.7 kmh S 8.3 mph13.4 kmh 30.18 in1022.0 mb 0.00 in0.0 mm 0.00 in0.0 mm 0.00 in0.0 mm
11:15 AM 63.7°F17.6°C 57.1°F13.9°C 79% 3.3 mph NW5.3 kmh NW 4.5 mph7.2 kmh 30.19 in1022.4 mb 0.00 in0.0 mm 0.00 in0.0 mm 0.00 in0.0 mm
11:45 AM 65.7°F18.7°C 58.6°F14.8°C 78% 3.5 mph SSE5.6 kmh SSE 9.2 mph14.8 kmh 30.20 in1022.7 mb 0.00 in0.0 mm 0.00 in0.0 mm 0.00 in0.0 mm
12:00 PM 65.3°F18.5°C 57.6°F14.2°C 76% 4.9 mph NNE7.9 kmh NNE 8.3 mph13.4 kmh 30.19 in1022.4 mb 0.00 in0.0 mm 0.00 in0.0 mm 0.00 in0.0 mm
12:15 PM 65.1°F18.4°C 57.8°F14.3°C 77% 4.4 mph SE7.1 kmh SE 6.9 mph11.1 kmh 30.20 in1022.7 mb 0.00 in0.0 mm 0.00 in0.0 mm 0.00 in0.0 mm
12:30 PM 64.8°F18.2°C 58.1°F14.5°C 79% 3.2 mph WNW5.1 kmh WNW 6.0 mph9.7 kmh 30.20 in1022.7 mb 0.00 in0.0 mm 0.00 in0.0 mm 0.00 in0.0 mm
01:00 PM 67.6°F19.8°C 59.1°F15.1°C 74% 3.3 mph NE5.3 kmh NE 6.9 mph11.1 kmh 30.20 in1022.7 mb 0.00 in0.0 mm 0.00 in0.0 mm 0.00 in0.0 mm
01:45 PM 64.6°F18.1°C 57.6°F14.2°C 78% 3.1 mph WSW5.0 kmh WSW 6.9 mph11.1 kmh 30.20 in1022.7 mb 0.00 in0.0 mm 0.00 in0.0 mm 0.00 in0.0 mm
02:00 PM 64.4°F18.0°C 58.1°F14.5°C 80% 3.4 mph N5.5 kmh N 6.0 mph9.7 kmh 30.20 in1022.7 mb 0.00 in0.0 mm 0.00 in0.0 mm 0.00 in0.0 mm
02:15 PM 64.6°F18.1°C 58.3°F14.6°C 80% 3.6 mph SSW5.8 kmh SSW 6.9 mph11.1 kmh 30.20 in1022.7 mb 0.00 in0.0 mm 0.00 in0.0 mm 0.00 in0.0 mm
02:30 PM 64.2°F17.9°C 57.6°F14.2°C 79% 5.1 mph SE8.2 kmh SE 13.0 mph20.9 kmh 30.20 in1022.7 mb 0.00 in0.0 mm 0.00 in0.0 mm 0.00 in0.0 mm
03:00 PM 65.3°F18.5°C 59.0°F15.0°C 80% 3.7 mph W6.0 kmh W 6.0 mph9.7 kmh 30.20 in1022.7 mb 0.00 in0.0 mm 0.00 in0.0 mm 0.00 in0.0 mm
03:15 PM 65.3°F18.5°C 59.0°F15.0°C 80% 2.6 mph SE4.2 kmh SE 4.5 mph7.2 kmh 30.20 in1022.7 mb 0.00 in0.0 mm 0.00 in0.0 mm 0.00 in0.0 mm
03:45 PM 63.7°F17.6°C 57.8°F14.3°C 81% 3.7 mph NE6.0 kmh NE 7.6 mph12.2 kmh 30.19 in1022.4 mb 0.00 in0.0 mm 0.00 in0.0 mm 0.00 in0.0 mm
04:00 PM 63.9°F17.7°C 57.9°F14.4°C 81% 3.8 mph S6.1 kmh S 6.0 mph9.7 kmh 30.20 in1022.7 mb 0.00 in0.0 mm 0.00 in0.0 mm 0.00 in0.0 mm
04:30 PM 64.2°F17.9°C 58.3°F14.6°C 81% 2.7 mph S4.3 kmh S 4.5 mph7.2 kmh 30.20 in1022.7 mb 0.00 in0.0 mm 0.00 in0.0 mm 0.00 in0.0 mm
04:45 PM 64.2°F17.9°C 58.3°F14.6°C 81% 2.3 mph SSW3.7 kmh SSW 3.1 mph5.0 kmh 30.20 in1022.7 mb 0.00 in0.0 mm 0.00 in0.0 mm 0.00 in0.0 mm
05:00 PM 63.7°F17.6°C 58.1°F14.5°C 82% 2.6 mph SSW4.2 kmh SSW 6.0 mph9.7 kmh 30.21 in1023.0 mb 0.00 in0.0 mm 0.00 in0.0 mm 0.00 in0.0 mm
05:15 PM 63.1°F17.3°C 57.9°F14.4°C 83% 2.2 mph SE3.5 kmh SE 4.5 mph7.2 kmh 30.20 in1022.7 mb 0.00 in0.0 mm 0.00 in0.0 mm 0.00 in0.0 mm
05:30 PM 62.4°F16.9°C 57.9°F14.4°C 85% 1.8 mph SW2.9 kmh SW 5.4 mph8.7 kmh 30.21 in1023.0 mb 0.00 in0.0 mm 0.00 in0.0 mm 0.00 in0.0 mm
05:45 PM 62.2°F16.8°C 58.0°F14.4°C 86% 1.6 mph E2.6 kmh E 2.2 mph3.5 kmh 30.21 in1023.0 mb 0.00 in0.0 mm 0.00 in0.0 mm 0.00 in0.0 mm
06:00 PM 62.1°F16.7°C 58.2°F14.6°C 87% 0.9 mph NNW1.4 kmh NNW 2.2 mph3.5 kmh 30.22 in1023.4 mb 0.00 in0.0 mm 0.00 in0.0 mm 0.00 in0.0 mm
06:15 PM 61.7°F16.5°C 58.4°F14.7°C 89% 0.7 mph NW1.1 kmh NW 2.2 mph3.5 kmh 30.22 in1023.4 mb 0.00 in0.0 mm 0.00 in0.0 mm 0.00 in0.0 mm
06:30 PM 61.2°F16.2°C 57.9°F14.4°C 89% 0.2 mph N0.3 kmh N 0.7 mph1.1 kmh 30.21 in1023.0 mb 0.00 in0.0 mm 0.00 in0.0 mm 0.00 in0.0 mm
06:45 PM 61.0°F16.1°C 58.0°F14.4°C 90% 0.4 mph WNW0.6 kmh WNW 1.6 mph2.6 kmh 30.22 in1023.4 mb 0.00 in0.0 mm 0.00 in0.0 mm 0.00 in0.0 mm
07:00 PM 61.0°F16.1°C 58.0°F14.4°C 90% 0.5 mph N0.8 kmh N 3.1 mph5.0 kmh 30.22 in1023.4 mb 0.00 in0.0 mm 0.00 in0.0 mm 0.00 in0.0 mm
07:15 PM 60.8°F16.0°C 57.9°F14.4°C 90% 1.1 mph N1.8 kmh N 2.2 mph3.5 kmh 30.22 in1023.4 mb 0.00 in0.0 mm 0.00 in0.0 mm 0.00 in0.0 mm
07:45 PM 60.1°F15.6°C 57.8°F14.3°C 92% 0.5 mph WSW0.8 kmh WSW 2.2 mph3.5 kmh 30.22 in1023.4 mb 0.00 in0.0 mm 0.00 in0.0 mm 0.00 in0.0 mm
08:15 PM 58.6°F14.8°C 56.6°F13.7°C 93% Calm Calm -- 30.23 in1023.7 mb 0.00 in0.0 mm 0.00 in0.0 mm 0.00 in0.0 mm
08:30 PM 58.5°F14.7°C 56.8°F13.8°C 94% 0.3 mph WNW0.5 kmh WNW 1.6 mph2.6 kmh 30.22 in1023.4 mb 0.00 in0.0 mm 0.00 in0.0 mm 0.00 in0.0 mm
08:45 PM 57.9°F14.4°C 56.2°F13.4°C 94% 0.3 mph W0.5 kmh W 1.6 mph2.6 kmh 30.22 in1023.4 mb 0.00 in0.0 mm 0.00 in0.0 mm 0.00 in0.0 mm
09:00 PM 57.0°F13.9°C 55.6°F13.1°C 95% 0.1 mph NW0.2 kmh NW 0.7 mph1.1 kmh 30.23 in1023.7 mb 0.00 in0.0 mm 0.00 in0.0 mm 0.00 in0.0 mm
09:15 PM 56.7°F13.7°C 55.3°F12.9°C 95% 0.3 mph NNW0.5 kmh NNW 1.6 mph2.6 kmh 30.22 in1023.4 mb 0.00 in0.0 mm 0.00 in0.0 mm 0.00 in0.0 mm
09:30 PM 56.7°F13.7°C 55.5°F13.1°C 96% 0.4 mph W0.6 kmh W 1.6 mph2.6 kmh 30.22 in1023.4 mb 0.00 in0.0 mm 0.00 in0.0 mm 0.00 in0.0 mm
09:45 PM 56.8°F13.8°C 55.7°F13.2°C 96% 0.2 mph S0.3 kmh S 0.7 mph1.1 kmh 30.22 in1023.4 mb 0.00 in0.0 mm 0.00 in0.0 mm 0.00 in0.0 mm
10:00 PM 56.7°F13.7°C 55.8°F13.2°C 97% 1.1 mph NE1.8 kmh NE 1.6 mph2.6 kmh 30.22 in1023.4 mb 0.00 in0.0 mm 0.00 in0.0 mm 0.00 in0.0 mm
10:30 PM 55.4°F13.0°C 54.6°F12.6°C 97% 0.5 mph SSW0.8 kmh SSW 1.6 mph2.6 kmh 30.22 in1023.4 mb 0.00 in0.0 mm 0.00 in0.0 mm 0.00 in0.0 mm
10:45 PM 54.5°F12.5°C 53.7°F12.1°C 97% 0.5 mph S0.8 kmh S 1.6 mph2.6 kmh 30.22 in1023.4 mb 0.00 in0.0 mm 0.00 in0.0 mm 0.00 in0.0 mm
11:00 PM 54.1°F12.3°C 53.3°F11.8°C 97% Calm Calm -- 30.21 in1023.0 mb 0.00 in0.0 mm 0.00 in0.0 mm 0.00 in0.0 mm
11:15 PM 54.7°F12.6°C 53.9°F12.2°C 97% 0.2 mph W0.3 kmh W 0.7 mph1.1 kmh 30.21 in1023.0 mb 0.00 in0.0 mm 0.00 in0.0 mm 0.00 in0.0 mm
11:30 PM 55.0°F12.8°C 54.2°F12.3°C 97% 0.1 mph W0.2 kmh W 0.7 mph1.1 kmh 30.22 in1023.4 mb 0.00 in0.0 mm 0.00 in0.0 mm 0.00 in0.0 mm
11:45 PM 54.9°F12.7°C 54.0°F12.2°C 97% Calm Calm -- 30.21 in1023.0 mb 0.00 in0.0 mm 0.00 in0.0 mm 0.00 in0.0 mm